Time;durP1;ratioP1;P1;durP2;ratioP2;P2;SDS_P1;SDS_P2;PMS_P1;PMS_P2;Temp;Humidity;BMP_temperature;BMP_pressure;BME280_temperature;BME280_humidity;BME280_pressure;Samples;Min_cycle;Max_cycle;Signal;HPM_P1;HPM_P2
2021/05/02 00:00:33;;;;;;;3.45;1.80;;;15.60;99.20;;;;;;5053304;28;20036;-88
2021/05/02 00:03:01;;;;;;;2.83;1.80;;;15.60;99.80;;;;;;5053258;28;20041;-90
2021/05/02 00:05:29;;;;;;;4.50;2.13;;;15.40;99.90;;;;;;5051693;28;20509;-88
2021/05/02 00:07:57;;;;;;;4.32;1.80;;;15.30;99.90;;;;;;5051924;28;20367;-88
2021/05/02 00:10:24;;;;;;;7.70;2.28;;;15.20;99.90;;;;;;5052938;28;20029;-88
2021/05/02 00:12:50;;;;;;;2.28;1.70;;;15.10;99.90;;;;;;5051645;28;20040;-88
2021/05/02 00:15:19;;;;;;;3.05;2.05;;;15.00;99.90;;;;;;5052827;28;20437;-89
2021/05/02 00:17:46;;;;;;;3.53;2.10;;;14.90;99.90;;;;;;5051989;28;20440;-89
2021/05/02 00:20:16;;;;;;;2.28;1.80;;;14.80;99.90;;;;;;5052807;28;20059;-89
2021/05/02 00:22:47;;;;;;;2.38;2.10;;;14.70;99.90;;;;;;5051979;28;20055;-90
2021/05/02 00:25:15;;;;;;;3.15;2.35;;;14.70;99.90;;;;;;5051398;28;20033;-88
2021/05/02 00:27:42;;;;;;;5.40;2.40;;;14.70;99.90;;;;;;5051451;28;20401;-90
2021/05/02 00:30:11;;;;;;;2.28;2.08;;;14.70;99.90;;;;;;5050690;28;20059;-90
2021/05/02 00:32:38;;;;;;;3.08;2.22;;;14.60;99.90;;;;;;5054122;28;20041;-90
2021/05/02 00:35:04;;;;;;;2.80;2.40;;;14.60;99.90;;;;;;5051796;28;20025;-90
2021/05/02 00:37:30;;;;;;;2.53;2.33;;;14.60;99.90;;;;;;5051529;28;20071;-90
2021/05/02 00:39:56;;;;;;;5.30;3.05;;;14.50;99.90;;;;;;5051628;28;20549;-90
2021/05/02 00:42:26;;;;;;;5.00;3.17;;;14.50;99.90;;;;;;5053355;28;20075;-90
2021/05/02 00:45:04;;;;;;;7.43;3.00;;;14.50;99.90;;;;;;5053012;28;20080;-90
2021/05/02 00:47:42;;;;;;;6.38;3.33;;;14.50;99.90;;;;;;5052273;28;20052;-90
2021/05/02 00:50:10;;;;;;;3.95;2.50;;;14.40;99.90;;;;;;5052717;28;20048;-90
2021/05/02 00:53:13;;;;;;;6.68;3.35;;;14.40;99.90;;;;;;5051458;28;20048;-89
2021/05/02 00:55:46;;;;;;;11.15;5.88;;;14.40;99.90;;;;;;5051604;28;20068;-90
2021/05/02 00:58:25;;;;;;;12.70;6.90;;;14.30;99.90;;;;;;5051316;28;20485;-90
2021/05/02 01:00:56;;;;;;;20.65;9.02;;;14.30;99.90;;;;;;5051336;28;20497;-91
2021/05/02 01:03:24;;;;;;;15.18;7.13;;;14.30;99.90;;;;;;5051360;28;20032;-90
2021/05/02 01:05:54;;;;;;;17.48;7.13;;;14.30;99.90;;;;;;5051309;28;20486;-91
2021/05/02 01:08:21;;;;;;;18.33;6.95;;;14.30;99.90;;;;;;5051815;28;20390;-90
2021/05/02 01:10:47;;;;;;;17.48;7.20;;;14.30;99.90;;;;;;5053041;28;20033;-90
2021/05/02 01:13:19;;;;;;;25.27;9.07;;;14.30;99.90;;;;;;5052919;28;20128;-88
2021/05/02 01:15:49;;;;;;;23.83;9.88;;;14.30;99.90;;;;;;5052708;28;20033;-90
2021/05/02 01:18:18;;;;;;;31.73;11.63;;;14.30;99.90;;;;;;5051347;28;20029;-90
2021/05/02 01:20:45;;;;;;;37.88;13.82;;;14.30;99.90;;;;;;5051696;28;20033;-90
2021/05/02 01:23:10;;;;;;;29.63;10.57;;;14.30;99.90;;;;;;5051252;28;20025;-90
2021/05/02 01:25:36;;;;;;;27.77;10.45;;;14.30;99.90;;;;;;5051114;28;20064;-90
2021/05/02 01:28:04;;;;;;;26.08;9.93;;;14.30;99.90;;;;;;5051378;28;20060;-90
2021/05/02 01:30:34;;;;;;;20.90;7.72;;;14.30;99.90;;;;;;5051318;28;20120;-90
2021/05/02 01:33:00;;;;;;;19.45;8.93;;;14.30;99.90;;;;;;5053075;28;20052;-90
2021/05/02 01:35:26;;;;;;;20.92;7.80;;;14.30;99.90;;;;;;5052397;28;20100;-90
2021/05/02 01:37:53;;;;;;;14.57;7.07;;;14.30;99.90;;;;;;5052018;28;20099;-89
2021/05/02 01:40:19;;;;;;;16.63;6.70;;;14.30;99.90;;;;;;5051044;28;20040;-89
2021/05/02 01:42:46;;;;;;;15.68;6.93;;;14.30;99.90;;;;;;5055040;28;20045;-89
2021/05/02 01:45:13;;;;;;;17.15;7.63;;;14.30;99.90;;;;;;5054395;28;20040;-90
2021/05/02 01:47:46;;;;;;;23.27;8.35;;;14.30;99.90;;;;;;5054513;28;20041;-89
2021/05/02 01:50:13;;;;;;;16.65;7.63;;;14.30;99.90;;;;;;5054430;28;20367;-88
2021/05/02 01:52:48;;;;;;;17.23;8.32;;;14.30;99.90;;;;;;5054383;28;20068;-88
2021/05/02 01:55:14;;;;;;;;;;;14.40;99.90;;;;;;5054910;28;20079;-88
2021/05/02 01:57:40;;;;;;;12.48;7.43;;;14.30;99.90;;;;;;5054283;28;19913;-89
2021/05/02 02:00:24;;;;;;;11.18;7.25;;;14.30;99.90;;;;;;5056134;28;20033;-88
2021/05/02 02:02:51;;;;;;;11.85;8.32;;;14.30;99.90;;;;;;5054539;28;20363;-88
2021/05/02 02:05:22;;;;;;;10.65;7.88;;;14.30;99.90;;;;;;5053988;28;20489;-88
2021/05/02 02:07:49;;;;;;;11.48;8.07;;;14.30;99.90;;;;;;5054094;28;20486;-90
2021/05/02 02:10:19;;;;;;;9.95;7.32;;;14.40;99.90;;;;;;5054114;28;20079;-86
2021/05/02 02:12:46;;;;;;;10.30;7.68;;;14.40;99.90;;;;;;5054388;28;20041;-86
2021/05/02 02:15:14;;;;;;;7.50;6.13;;;14.40;99.90;;;;;;5055467;28;20420;-85
2021/05/02 02:17:41;;;;;;;10.00;6.80;;;14.40;99.90;;;;;;5053998;28;20413;-89
2021/05/02 02:20:07;;;;;;;9.82;6.65;;;14.40;99.90;;;;;;5053790;28;20490;-89
2021/05/02 02:22:40;;;;;;;7.88;6.28;;;14.40;99.90;;;;;;5055265;28;20049;-89
2021/05/02 02:25:09;;;;;;;8.70;6.20;;;14.50;99.90;;;;;;5053855;28;20029;-89
2021/05/02 02:27:35;;;;;;;9.70;6.47;;;14.50;99.90;;;;;;5054489;28;20135;-88
2021/05/02 02:30:04;;;;;;;9.60;6.07;;;14.50;99.90;;;;;;5054878;28;20162;-89
2021/05/02 02:32:32;;;;;;;13.45;6.57;;;14.60;99.90;;;;;;5055253;28;20059;-88
2021/05/02 02:34:59;;;;;;;16.85;8.00;;;14.60;99.90;;;;;;5053675;28;20041;-88
2021/05/02 02:37:27;;;;;;;17.13;8.88;;;14.60;99.90;;;;;;5053626;28;20040;-88
2021/05/02 02:40:05;;;;;;;26.02;11.80;;;14.60;99.90;;;;;;5053342;28;20029;-88
2021/05/02 02:42:32;;;;;;;20.02;10.43;;;14.60;99.90;;;;;;5053580;28;20124;-88
2021/05/02 02:45:00;;;;;;;27.20;11.20;;;14.60;99.90;;;;;;5053358;28;20175;-89
2021/05/02 02:47:33;;;;;;;32.28;14.45;;;14.70;99.90;;;;;;5053406;28;20049;-87
2021/05/02 02:50:00;;;;;;;25.63;13.10;;;14.70;99.90;;;;;;5053455;28;20482;-88
2021/05/02 02:52:28;;;;;;;26.88;13.73;;;14.70;99.90;;;;;;5052282;28;20151;-87
2021/05/02 02:55:09;;;;;;;18.83;14.40;;;14.80;99.90;;;;;;5053128;28;20466;-88
2021/05/02 02:57:53;;;;;;;19.45;13.52;;;14.80;99.90;;;;;;5054708;28;20041;-87
2021/05/02 03:00:24;;;;;;;20.75;13.88;;;14.80;99.90;;;;;;5053387;28;20128;-87
2021/05/02 03:02:54;;;;;;;23.33;14.13;;;14.80;99.90;;;;;;5054733;28;20041;-88
2021/05/02 03:05:23;;;;;;;31.75;16.35;;;14.80;99.90;;;;;;5052845;28;20046;-85
2021/05/02 03:07:52;;;;;;;30.10;15.82;;;14.80;99.90;;;;;;5053312;28;20171;-90
2021/05/02 03:10:18;;;;;;;23.45;13.70;;;14.90;99.90;;;;;;5053471;28;20114;-88
2021/05/02 03:12:45;;;;;;;18.10;13.70;;;15.00;99.90;;;;;;5052983;28;20468;-88
2021/05/02 03:15:12;;;;;;;14.52;12.02;;;15.00;99.90;;;;;;5053005;28;20045;-88
2021/05/02 03:17:41;;;;;;;14.27;11.88;;;15.00;99.90;;;;;;5052870;28;20123;-88
2021/05/02 03:20:12;;;;;;;16.02;10.80;;;15.10;99.90;;;;;;5052683;28;20124;-88
2021/05/02 03:22:58;;;;;;;14.50;10.50;;;15.10;99.90;;;;;;5053424;28;20033;-88
2021/05/02 03:25:26;;;;;;;18.35;12.48;;;15.20;99.90;;;;;;5052653;28;20512;-88
2021/05/02 03:28:02;;;;;;;18.02;11.27;;;15.30;99.90;;;;;;5053306;28;20087;-88
2021/05/02 03:30:28;;;;;;;14.57;9.77;;;15.30;99.90;;;;;;5053786;28;20084;-89
2021/05/02 03:32:56;;;;;;;14.15;9.65;;;15.30;99.90;;;;;;5054066;28;20073;-89
2021/05/02 03:35:30;;;;;;;17.35;11.35;;;15.30;99.90;;;;;;5053681;28;20033;-89
2021/05/02 03:38:31;;;;;;;18.77;11.30;;;15.40;99.90;;;;;;5052499;28;20083;-89
2021/05/02 03:40:59;;;;;;;17.05;10.95;;;15.40;99.90;;;;;;5021876;28;20567;-89
2021/05/02 03:43:25;;;;;;;21.45;12.02;;;15.50;99.90;;;;;;5053375;28;20040;-88
2021/05/02 03:45:50;;;;;;;16.73;11.20;;;15.50;99.90;;;;;;5052082;28;20049;-89
2021/05/02 03:48:16;;;;;;;20.42;11.43;;;15.50;99.90;;;;;;5053385;28;20104;-89
2021/05/02 03:50:42;;;;;;;16.65;10.98;;;15.50;99.90;;;;;;5052304;28;20029;-89
2021/05/02 03:53:08;;;;;;;16.90;10.63;;;15.50;99.90;;;;;;5052446;28;20064;-87
2021/05/02 03:56:00;;;;;;;19.13;10.68;;;15.50;99.90;;;;;;5051774;28;20123;-89
2021/05/02 03:58:26;;;;;;;19.70;12.05;;;15.60;99.90;;;;;;5049967;28;20044;-89
2021/05/02 04:00:51;;;;;;;17.65;11.02;;;15.70;99.90;;;;;;5053001;28;20094;-89
2021/05/02 04:03:17;;;;;;;17.23;10.98;;;15.70;99.90;;;;;;5052330;28;20123;-90
2021/05/02 04:05:43;;;;;;;18.75;11.68;;;15.80;99.90;;;;;;5051464;28;20056;-89
2021/05/02 04:08:11;;;;;;;17.30;11.55;;;15.80;99.90;;;;;;5051740;28;20526;-89
2021/05/02 04:10:37;;;;;;;16.98;10.93;;;15.90;99.90;;;;;;5051709;28;20095;-89
2021/05/02 04:13:03;;;;;;;23.55;11.80;;;15.90;99.90;;;;;;5051381;28;20025;-88
2021/05/02 04:15:29;;;;;;;23.38;12.60;;;16.00;99.90;;;;;;5051970;28;20060;-89
2021/05/02 04:17:54;;;;;;;26.38;13.02;;;16.00;99.90;;;;;;5051836;28;20509;-89
2021/05/02 04:20:20;;;;;;;25.65;12.18;;;16.10;99.90;;;;;;5051577;28;20025;-88
2021/05/02 04:22:47;;;;;;;24.05;12.38;;;16.10;99.90;;;;;;5051656;28;20041;-89
2021/05/02 04:25:13;;;;;;;21.70;11.85;;;16.20;99.90;;;;;;5051527;28;20078;-88
2021/05/02 04:27:39;;;;;;;19.08;10.85;;;16.30;99.90;;;;;;5051570;28;20052;-88
2021/05/02 04:30:06;;;;;;;17.92;10.63;;;16.30;99.90;;;;;;5051578;28;20135;-89
2021/05/02 04:32:32;;;;;;;16.42;9.93;;;16.40;99.90;;;;;;5052677;28;20069;-89
2021/05/02 04:34:57;;;;;;;15.73;9.68;;;16.50;99.90;;;;;;5051841;28;20134;-88
2021/05/02 04:37:23;;;;;;;13.18;9.50;;;16.50;99.90;;;;;;5054361;28;20048;-88
2021/05/02 04:39:49;;;;;;;11.50;9.10;;;16.60;99.90;;;;;;5055080;28;20033;-89
2021/05/02 04:42:15;;;;;;;12.25;9.00;;;16.60;99.90;;;;;;5052928;28;20037;-89
2021/05/02 04:44:40;;;;;;;11.98;8.77;;;16.60;99.90;;;;;;5051421;28;20118;-89
2021/05/02 04:47:06;;;;;;;11.32;9.13;;;16.70;99.90;;;;;;5051540;28;20048;-90
2021/05/02 04:49:32;;;;;;;11.98;8.70;;;16.80;99.90;;;;;;5051379;28;20474;-88
2021/05/02 04:51:58;;;;;;;8.95;8.05;;;17.00;99.90;;;;;;5051327;28;20138;-89
2021/05/02 04:54:24;;;;;;;10.10;8.05;;;17.20;99.90;;;;;;5051123;28;20033;-89
2021/05/02 04:56:50;;;;;;;9.20;8.30;;;17.20;99.90;;;;;;5053775;28;20060;-89
2021/05/02 04:59:16;;;;;;;10.50;9.25;;;17.20;99.90;;;;;;5052969;28;20091;-88
2021/05/02 05:01:43;;;;;;;13.57;9.55;;;17.30;99.90;;;;;;5051305;28;20037;-90
2021/05/02 05:04:09;;;;;;;9.95;8.52;;;17.60;99.90;;;;;;5051292;28;20036;-90
2021/05/02 05:06:36;;;;;;;11.93;9.20;;;18.10;99.90;;;;;;5052226;28;20075;-90
2021/05/02 05:09:03;;;;;;;12.35;9.48;;;18.60;99.90;;;;;;5052349;28;20040;-89
2021/05/02 05:11:29;;;;;;;10.40;9.25;;;19.00;99.90;;;;;;5050350;28;20136;-89
2021/05/02 05:13:55;;;;;;;11.05;8.20;;;19.30;99.90;;;;;;5050985;28;20473;-90
2021/05/02 05:16:20;;;;;;;8.98;8.05;;;19.70;99.90;;;;;;5052211;28;20033;-90
2021/05/02 05:18:46;;;;;;;11.50;9.43;;;20.20;99.90;;;;;;5056557;28;20112;-90
2021/05/02 05:21:12;;;;;;;10.18;9.15;;;20.50;99.90;;;;;;5056589;28;20045;-89
2021/05/02 05:23:40;;;;;;;9.65;8.57;;;20.90;99.50;;;;;;5055478;28;20032;-89
2021/05/02 05:26:08;;;;;;;12.10;8.57;;;21.20;97.60;;;;;;5056246;28;20122;-89
2021/05/02 05:28:34;;;;;;;10.77;8.95;;;21.30;94.90;;;;;;5054757;28;20521;-87
2021/05/02 05:31:00;;;;;;;12.40;9.43;;;21.20;91.90;;;;;;5054585;28;20041;-90
2021/05/02 05:33:30;;;;;;;12.40;9.20;;;20.90;90.30;;;;;;5056929;28;20044;-89
2021/05/02 05:35:56;;;;;;;12.32;9.65;;;20.50;90.70;;;;;;5054599;28;20052;-89
2021/05/02 05:38:22;;;;;;;10.85;9.02;;;20.20;91.10;;;;;;5054512;28;20032;-88
2021/05/02 05:40:48;;;;;;;13.68;9.80;;;19.90;92.00;;;;;;5055075;28;20033;-89
2021/05/02 05:43:14;;;;;;;11.40;9.20;;;19.80;91.40;;;;;;5054455;28;20064;-88
2021/05/02 05:45:40;;;;;;;11.00;9.10;;;19.80;92.20;;;;;;5054335;28;20049;-88
2021/05/02 05:48:05;;;;;;;11.02;9.18;;;19.90;92.80;;;;;;5054378;28;20033;-89
2021/05/02 05:50:45;;;;;;;11.65;9.30;;;20.20;91.90;;;;;;5055461;28;20060;-88
2021/05/02 05:53:40;;;;;;;12.75;9.45;;;20.50;92.20;;;;;;5060087;28;20051;-89
2021/05/02 05:56:09;;;;;;;;;;;20.90;91.80;;;;;;5037258;28;20200;-89
2021/05/02 05:58:58;;;;;;;10.50;8.13;;;21.10;89.60;;;;;;5053286;28;19917;-88
2021/05/02 06:01:24;;;;;;;10.65;8.02;;;21.20;90.10;;;;;;5025257;28;20051;-89
2021/05/02 06:03:51;;;;;;;11.55;9.20;;;21.20;87.00;;;;;;5036661;28;20530;-88
2021/05/02 06:06:17;;;;;;;9.05;7.22;;;21.20;84.30;;;;;;5036264;28;20045;-88
2021/05/02 06:08:42;;;;;;;11.48;6.65;;;21.30;86.60;;;;;;5036554;28;20043;-89
2021/05/02 06:11:08;;;;;;;10.15;7.30;;;21.70;86.70;;;;;;5037580;28;20482;-88
2021/05/02 06:13:34;;;;;;;10.45;7.70;;;21.90;80.10;;;;;;5036391;28;20044;-90
2021/05/02 06:16:00;;;;;;;8.60;6.78;;;21.80;78.80;;;;;;5036099;28;20036;-89
2021/05/02 06:18:25;;;;;;;10.07;6.72;;;21.70;78.60;;;;;;5036097;28;20044;-89
2021/05/02 06:20:51;;;;;;;9.32;7.05;;;21.60;78.30;;;;;;5036151;28;20037;-90
2021/05/02 06:23:18;;;;;;;9.45;7.00;;;21.50;74.50;;;;;;5036325;28;20452;-88
2021/05/02 06:25:44;;;;;;;9.70;7.65;;;21.30;75.30;;;;;;5054883;28;20120;-88
2021/05/02 06:28:10;;;;;;;10.07;7.38;;;21.30;76.50;;;;;;5052297;28;20129;-88
2021/05/02 06:30:35;;;;;;;10.13;7.45;;;21.30;76.10;;;;;;5054827;28;20108;-90
2021/05/02 06:33:01;;;;;;;9.50;6.55;;;21.30;76.80;;;;;;5055677;28;20037;-89
2021/05/02 06:35:27;;;;;;;12.15;6.97;;;21.30;77.80;;;;;;5054384;28;20041;-87
2021/05/02 06:37:53;;;;;;;9.98;7.03;;;21.30;77.50;;;;;;5053641;28;20482;-89
2021/05/02 06:40:19;;;;;;;12.02;7.28;;;21.30;76.50;;;;;;5053538;28;20168;-88
2021/05/02 06:42:45;;;;;;;9.45;7.38;;;21.30;75.30;;;;;;5054879;28;20108;-88
2021/05/02 06:45:18;;;;;;;8.00;6.63;;;21.20;76.10;;;;;;5055797;28;20486;-89
2021/05/02 06:47:44;;;;;;;10.75;6.75;;;21.20;76.10;;;;;;5038807;28;20051;-87
2021/05/02 06:50:10;;;;;;;8.57;5.90;;;21.10;75.70;;;;;;5053456;28;20091;-88
2021/05/02 06:52:36;;;;;;;9.43;6.63;;;21.10;75.10;;;;;;5052995;28;20033;-87
2021/05/02 06:55:02;;;;;;;9.25;7.05;;;21.10;74.20;;;;;;5053577;28;20033;-89
2021/05/02 06:57:28;;;;;;;9.98;6.75;;;21.10;74.50;;;;;;5053472;28;20057;-89
2021/05/02 06:59:54;;;;;;;11.85;7.00;;;21.10;75.70;;;;;;5056433;28;20402;-88
2021/05/02 07:02:20;;;;;;;8.73;7.15;;;21.10;76.90;;;;;;5057400;28;20090;-89
2021/05/02 07:04:45;;;;;;;11.43;7.20;;;21.10;76.80;;;;;;5054021;28;20350;-90
2021/05/02 07:07:11;;;;;;;10.10;6.72;;;21.20;77.00;;;;;;5053071;28;20075;-87
2021/05/02 07:09:37;;;;;;;11.48;6.72;;;21.10;77.80;;;;;;5053672;28;20040;-88
2021/05/02 07:12:03;;;;;;;10.15;6.35;;;21.20;77.60;;;;;;5052917;28;20094;-87
2021/05/02 07:14:29;;;;;;;12.20;7.00;;;21.40;77.00;;;;;;5053256;28;20036;-89
2021/05/02 07:16:54;;;;;;;9.95;6.40;;;21.50;76.90;;;;;;5052706;28;20044;-87
2021/05/02 07:19:22;;;;;;;8.68;6.10;;;21.60;75.70;;;;;;5052784;28;20029;-88
2021/05/02 07:21:48;;;;;;;10.02;6.50;;;21.80;75.80;;;;;;5052682;28;20410;-88
2021/05/02 07:24:17;;;;;;;10.70;6.10;;;21.90;74.40;;;;;;5052958;28;20037;-89
2021/05/02 07:26:43;;;;;;;10.75;5.80;;;21.90;73.40;;;;;;5052614;28;20509;-88
2021/05/02 07:29:12;;;;;;;10.75;6.25;;;21.90;73.40;;;;;;5052826;28;20140;-88
2021/05/02 07:31:46;;;;;;;11.13;6.97;;;21.90;73.10;;;;;;5054068;28;20033;-88
2021/05/02 07:34:13;;;;;;;7.85;5.82;;;21.80;74.20;;;;;;5052884;28;20057;-87
2021/05/02 07:36:38;;;;;;;7.63;6.00;;;21.80;75.10;;;;;;5056187;28;20037;-87
2021/05/02 07:39:09;;;;;;;10.23;6.30;;;21.90;73.60;;;;;;5052595;28;20432;-88
2021/05/02 07:41:35;;;;;;;9.52;6.30;;;21.90;74.10;;;;;;5052574;28;20055;-87
2021/05/02 07:44:00;;;;;;;10.30;5.88;;;21.90;73.40;;;;;;5052639;28;20033;-88
2021/05/02 07:46:26;;;;;;;9.32;5.40;;;21.80;73.10;;;;;;5052695;28;20552;-88
2021/05/02 07:48:52;;;;;;;9.57;5.80;;;21.80;72.60;;;;;;5053796;28;20039;-88
2021/05/02 07:51:18;;;;;;;11.35;6.18;;;21.60;71.80;;;;;;5052016;28;20041;-88
2021/05/02 07:53:44;;;;;;;10.30;6.05;;;21.50;71.60;;;;;;5052348;28;20033;-87
2021/05/02 07:56:09;;;;;;;9.13;6.38;;;21.30;72.40;;;;;;5051935;28;20045;-88
2021/05/02 07:58:35;;;;;;;11.98;6.45;;;21.20;73.80;;;;;;5053659;28;20044;-87
2021/05/02 08:01:02;;;;;;;12.68;6.60;;;21.10;73.80;;;;;;5052214;28;20075;-87
2021/05/02 08:03:39;;;;;;;11.15;6.15;;;21.00;74.10;;;;;;5051744;28;20060;-88
2021/05/02 08:06:05;;;;;;;12.68;6.45;;;20.90;74.60;;;;;;5051650;28;20182;-88
2021/05/02 08:08:33;;;;;;;10.68;6.18;;;20.90;75.10;;;;;;5051679;28;20468;-88
2021/05/02 08:10:59;;;;;;;10.50;6.93;;;20.90;76.10;;;;;;5052694;28;20041;-88
2021/05/02 08:13:28;;;;;;;12.00;7.15;;;21.00;77.10;;;;;;5051910;28;20052;-87
2021/05/02 08:16:05;;;;;;;12.38;6.80;;;21.00;77.50;;;;;;5051754;28;20030;-88
2021/05/02 08:18:32;;;;;;;12.35;7.60;;;21.10;78.00;;;;;;5051010;28;20136;-87
2021/05/02 08:21:07;;;;;;;13.95;8.15;;;21.10;78.40;;;;;;5052323;28;20104;-87
2021/05/02 08:23:32;;;;;;;12.85;7.32;;;21.20;78.80;;;;;;5059092;28;20041;-88
2021/05/02 08:25:58;;;;;;;14.70;7.22;;;21.20;77.40;;;;;;5057140;28;20081;-88
2021/05/02 08:28:24;;;;;;;13.15;7.35;;;21.30;76.90;;;;;;5051363;28;20091;-88
2021/05/02 08:30:50;;;;;;;12.75;7.32;;;21.20;76.70;;;;;;5051418;28;20111;-89
2021/05/02 08:33:16;;;;;;;13.40;7.07;;;21.20;77.30;;;;;;5054410;28;20044;-87
2021/05/02 08:35:42;;;;;;;14.43;7.30;;;21.20;77.00;;;;;;5051969;28;20389;-87
2021/05/02 08:38:08;;;;;;;13.15;6.57;;;21.20;76.80;;;;;;5052772;28;20090;-88
2021/05/02 08:40:33;;;;;;;13.75;7.18;;;21.10;77.40;;;;;;5051773;28;20440;-87
2021/05/02 08:43:10;;;;;;;16.73;6.97;;;21.10;76.60;;;;;;5051341;28;20049;-88
2021/05/02 08:45:36;;;;;;;14.20;7.70;;;21.00;75.70;;;;;;5053025;28;20037;-88
2021/05/02 08:48:03;;;;;;;14.02;6.97;;;20.90;75.90;;;;;;5052712;28;20521;-88
2021/05/02 08:50:29;;;;;;;13.25;7.50;;;20.90;76.80;;;;;;5051308;28;20033;-89
2021/05/02 08:52:55;;;;;;;12.55;7.57;;;20.90;77.00;;;;;;5051995;28;20048;-86
2021/05/02 08:55:20;;;;;;;14.38;7.60;;;20.90;77.60;;;;;;5053285;28;20021;-88
2021/05/02 08:57:46;;;;;;;15.77;8.48;;;20.80;77.90;;;;;;5052071;28;20037;-90
2021/05/02 09:00:12;;;;;;;20.58;7.65;;;20.70;78.60;;;;;;5051955;28;20036;-89
2021/05/02 09:02:38;;;;;;;18.23;7.63;;;20.60;80.30;;;;;;5053393;28;20044;-90
2021/05/02 09:05:06;;;;;;;19.80;8.02;;;20.50;80.30;;;;;;5051402;28;20033;-86
2021/05/02 09:07:43;;;;;;;12.23;7.35;;;20.50;80.30;;;;;;5051842;28;20049;-87
2021/05/02 09:10:10;;;;;;;15.80;8.05;;;20.50;81.00;;;;;;5051546;28;20518;-87
2021/05/02 09:12:38;;;;;;;17.98;7.57;;;20.60;80.90;;;;;;5052653;28;20466;-89
2021/05/02 09:15:08;;;;;;;19.38;7.45;;;20.70;80.30;;;;;;5051668;28;20033;-88
2021/05/02 09:17:54;;;;;;;15.38;8.00;;;20.80;80.10;;;;;;5051042;28;20044;-88
2021/05/02 09:20:51;;;;;;;12.60;7.35;;;20.90;79.70;;;;;;5051164;28;20040;-88
2021/05/02 09:23:20;;;;;;;14.20;8.15;;;20.90;80.30;;;;;;5052185;28;20041;-91
2021/05/02 09:25:46;;;;;;;14.48;8.05;;;20.90;80.60;;;;;;5052091;28;20045;-88
2021/05/02 09:28:11;;;;;;;16.05;8.13;;;20.80;79.70;;;;;;5052592;28;20126;-87
2021/05/02 09:30:38;;;;;;;15.77;7.65;;;20.60;80.30;;;;;;5052628;28;20033;-86
2021/05/02 09:33:04;;;;;;;17.08;8.70;;;20.60;81.50;;;;;;5053399;28;20127;-88
2021/05/02 09:35:34;;;;;;;17.98;8.18;;;20.50;82.10;;;;;;5050612;28;20041;-88
2021/05/02 09:38:27;;;;;;;16.30;8.02;;;20.40;83.40;;;;;;5050933;28;20033;-87
2021/05/02 09:40:55;;;;;;;18.48;8.30;;;20.20;84.00;;;;;;5048532;28;20045;-88
2021/05/02 09:43:39;;;;;;;15.57;8.80;;;20.10;84.60;;;;;;5051540;28;20037;-87
2021/05/02 09:46:24;;;;;;;17.83;8.88;;;20.00;86.00;;;;;;5052011;28;20041;-86
2021/05/02 09:49:02;;;;;;;14.98;9.70;;;19.80;90.00;;;;;;5051158;28;20037;-88
2021/05/02 09:51:29;;;;;;;16.55;10.38;;;19.60;90.70;;;;;;5051030;28;20506;-88
2021/05/02 09:54:02;;;;;;;19.25;11.25;;;19.30;93.10;;;;;;5051562;28;20383;-89
2021/05/02 09:56:32;;;;;;;20.45;11.38;;;19.00;95.60;;;;;;5051913;28;20033;-87
2021/05/02 09:58:58;;;;;;;24.63;12.38;;;18.70;97.20;;;;;;5065379;28;20394;-87
2021/05/02 10:01:25;;;;;;;19.52;11.55;;;18.50;98.60;;;;;;5068827;28;20033;-87
2021/05/02 10:03:54;;;;;;;19.58;11.60;;;18.40;99.40;;;;;;5069470;28;20540;-88
2021/05/02 10:06:35;;;;;;;17.00;12.18;;;18.30;99.80;;;;;;5065829;28;20053;-88
2021/05/02 10:09:06;;;;;;;20.77;12.38;;;18.20;99.90;;;;;;5054077;28;20045;-89
2021/05/02 10:11:33;;;;;;;20.60;12.63;;;18.00;99.90;;;;;;5055062;28;20033;-88
2021/05/02 10:14:02;;;;;;;21.58;13.30;;;17.90;99.90;;;;;;5058351;28;20033;-90
2021/05/02 10:16:29;;;;;;;21.58;13.70;;;17.80;99.90;;;;;;5054035;28;20129;-88
2021/05/02 10:18:55;;;;;;;17.45;12.25;;;17.80;99.90;;;;;;5053913;28;20041;-88
2021/05/02 10:21:21;;;;;;;16.42;11.68;;;17.70;99.90;;;;;;5053887;28;20033;-88
2021/05/02 10:23:47;;;;;;;22.02;12.18;;;17.70;99.90;;;;;;5053752;28;20037;-88
2021/05/02 10:26:14;;;;;;;19.40;12.32;;;17.70;99.90;;;;;;5053702;28;20051;-89
2021/05/02 10:28:46;;;;;;;15.65;12.13;;;17.70;99.90;;;;;;5053782;28;20383;-89
2021/05/02 10:31:14;;;;;;;16.10;11.98;;;17.60;99.90;;;;;;5053790;28;20033;-88
2021/05/02 10:33:42;;;;;;;21.88;12.45;;;17.50;99.90;;;;;;5054889;28;20076;-90
2021/05/02 10:36:20;;;;;;;16.90;11.07;;;17.50;99.90;;;;;;5053682;28;20044;-90
2021/05/02 10:39:00;;;;;;;14.35;10.43;;;17.50;99.90;;;;;;5055360;28;20033;-88
2021/05/02 10:41:29;;;;;;;18.45;11.18;;;17.50;99.90;;;;;;5053599;28;20498;-90
2021/05/02 10:44:20;;;;;;;17.25;12.02;;;17.50;99.90;;;;;;5054549;28;20414;-88
2021/05/02 10:46:53;;;;;;;17.75;11.45;;;17.30;99.90;;;;;;5044379;28;20040;-90
2021/05/02 10:49:19;;;;;;;14.88;11.35;;;17.20;99.90;;;;;;5053725;28;20401;-89
2021/05/02 10:51:49;;;;;;;16.45;10.80;;;17.10;99.90;;;;;;5053512;28;20041;-90
2021/05/02 10:54:24;;;;;;;17.83;11.75;;;17.10;99.90;;;;;;5053554;28;20051;-89
2021/05/02 10:56:53;;;;;;;14.20;11.75;;;17.00;99.90;;;;;;5054944;28;20021;-91
2021/05/02 10:59:22;;;;;;;16.38;12.20;;;16.90;99.90;;;;;;5059093;28;20045;-89
2021/05/02 11:01:48;;;;;;;17.63;12.10;;;16.90;99.90;;;;;;5053551;28;20041;-90
2021/05/02 11:04:14;;;;;;;23.65;12.00;;;16.80;99.90;;;;;;5053048;28;20041;-89
2021/05/02 11:06:40;;;;;;;15.48;11.05;;;16.80;99.90;;;;;;5056018;28;20045;-89
2021/05/02 11:09:10;;;;;;;19.75;12.32;;;16.80;99.90;;;;;;5054696;28;20093;-88
2021/05/02 11:11:45;;;;;;;16.90;11.98;;;16.80;99.90;;;;;;5053772;28;20037;-88
2021/05/02 11:14:15;;;;;;;18.05;12.00;;;16.80;99.90;;;;;;5053560;28;20554;-89
2021/05/02 11:16:46;;;;;;;16.27;12.48;;;16.60;99.90;;;;;;5053832;28;20037;-89
2021/05/02 11:19:22;;;;;;;17.98;13.15;;;16.50;99.90;;;;;;5053637;28;20037;-92
2021/05/02 11:21:51;;;;;;;19.80;13.15;;;16.40;99.90;;;;;;5052947;28;20040;-89
2021/05/02 11:24:25;;;;;;;20.02;12.88;;;16.40;99.90;;;;;;5053408;28;20405;-91
2021/05/02 11:27:04;;;;;;;20.93;13.97;;;16.20;99.90;;;;;;5055698;28;20047;-92
2021/05/02 11:29:39;;;;;;;17.23;13.82;;;16.10;99.90;;;;;;5054190;28;20281;-88
2021/05/02 11:32:08;;;;;;;20.20;15.68;;;16.10;99.90;;;;;;5053543;28;20040;-92
2021/05/02 11:34:54;;;;;;;21.77;14.70;;;16.10;99.90;;;;;;5054851;28;20044;-90
2021/05/02 11:37:56;;;;;;;18.00;14.13;;;16.10;99.90;;;;;;5053721;28;20102;-92
2021/05/02 11:40:28;;;;;;;21.33;15.15;;;16.10;99.90;;;;;;5039683;28;20043;-90
2021/05/02 11:43:12;;;;;;;21.27;15.70;;;16.10;99.90;;;;;;5052615;28;20083;-90
2021/05/02 11:46:06;;;;;;;21.60;15.07;;;16.10;99.90;;;;;;5054719;28;20386;-88
2021/05/02 11:48:41;;;;;;;19.60;16.60;;;16.10;99.90;;;;;;5054318;28;20266;-88
2021/05/02 11:51:22;;;;;;;21.25;15.95;;;16.00;99.90;;;;;;5061544;28;20045;-87
2021/05/02 11:53:55;;;;;;;24.92;17.77;;;16.00;99.90;;;;;;5054426;28;20108;-89
2021/05/02 11:56:25;;;;;;;23.08;17.88;;;15.90;99.90;;;;;;5052428;28;20078;-87
2021/05/02 11:59:05;;;;;;;21.20;17.38;;;15.90;99.90;;;;;;5053561;28;20036;-90
2021/05/02 12:01:32;;;;;;;24.58;18.77;;;15.90;99.90;;;;;;5053763;28;20044;-91
2021/05/02 12:04:06;;;;;;;22.25;19.15;;;16.00;99.90;;;;;;5052448;28;20402;-91
2021/05/02 12:06:34;;;;;;;63.53;27.97;;;16.00;99.90;;;;;;5053079;28;20041;-89
2021/05/02 12:09:09;;;;;;;85.20;29.83;;;16.00;99.90;;;;;;5051995;28;20262;-88
2021/05/02 12:11:35;;;;;;;73.57;29.67;;;16.00;99.90;;;;;;5053495;28;20064;-92
2021/05/02 12:14:00;;;;;;;59.95;31.77;;;16.00;99.90;;;;;;5056034;28;20498;-92
2021/05/02 12:16:30;;;;;;;55.92;30.63;;;16.10;99.90;;;;;;5053327;28;20102;-92
2021/05/02 12:19:02;;;;;;;46.97;29.42;;;16.10;99.90;;;;;;5052535;28;20383;-91
2021/05/02 12:21:40;;;;;;;34.40;25.35;;;16.10;99.90;;;;;;5053343;28;20029;-89
2021/05/02 12:24:14;;;;;;;34.03;25.75;;;16.10;99.90;;;;;;5051644;28;20033;-90
2021/05/02 12:26:46;;;;;;;31.83;23.92;;;16.10;99.90;;;;;;5051933;28;20195;-93
2021/05/02 12:29:19;;;;;;;32.22;23.48;;;16.20;99.90;;;;;;5051840;28;20122;-92
2021/05/02 12:32:04;;;;;;;28.60;22.17;;;16.20;99.90;;;;;;5051425;28;20029;-89
2021/05/02 12:34:31;;;;;;;28.95;23.80;;;16.20;99.90;;;;;;5053680;28;20105;-91
2021/05/02 12:37:06;;;;;;;30.08;24.98;;;16.20;99.90;;;;;;5051751;28;20040;-91
2021/05/02 12:39:34;;;;;;;25.50;21.92;;;16.20;99.90;;;;;;5051501;28;20028;-89
2021/05/02 12:42:00;;;;;;;26.25;23.55;;;16.30;99.90;;;;;;5055459;28;20029;-90
2021/05/02 12:44:27;;;;;;;26.95;22.90;;;16.30;99.90;;;;;;5051675;28;20036;-91
2021/05/02 12:46:58;;;;;;;33.35;25.67;;;16.30;99.90;;;;;;5051544;28;20521;-88